Time,TemperatureF,DewpointF,PressureIn,WindDirection,WindDirectionDegrees,WindSpeedMPH,WindSpeedGustMPH,Humidity,HourlyPrecipIn,Conditions,Clouds,dailyrainin,SoftwareType,DateUTC
2013-06-17 00:00:00,68.4,64.4,29.85,NNW,330,2.0,2.0,87,0.00,,,1.24,Wunderground v.1.15,2013-06-17 05:00:00,
2013-06-17 00:05:00,68.4,64.4,29.86,NNW,332,1.0,2.0,87,0.00,,,0.00,Wunderground v.1.15,2013-06-17 05:05:00,
2013-06-17 00:10:00,68.6,64.6,29.86,NNW,332,0.0,0.0,87,0.00,,,0.00,Wunderground v.1.15,2013-06-17 05:10:00,
2013-06-17 00:20:00,68.4,64.7,29.87,NNW,332,0.0,0.0,88,0.00,,,0.00,Wunderground v.1.15,2013-06-17 05:20:00,
2013-06-17 00:30:00,68.4,64.4,29.87,NNE,28,1.0,1.0,87,0.00,,,0.01,Wunderground v.1.15,2013-06-17 05:30:00,
2013-06-17 00:40:00,68.4,64.4,29.89,NNW,347,0.0,0.0,87,0.40,,,0.08,Wunderground v.1.15,2013-06-17 05:40:00,
2013-06-17 00:49:00,67.9,64.2,29.88,NNW,346,0.0,0.0,88,0.13,,,0.10,Wunderground v.1.15,2013-06-17 05:49:00,
2013-06-17 00:55:00,67.8,64.4,29.88,SSW,212,0.0,0.0,89,0.07,,,0.10,Wunderground v.1.15,2013-06-17 05:55:00,
2013-06-17 01:05:00,67.6,64.6,29.86,SSW,212,0.0,0.0,90,0.00,,,0.10,Wunderground v.1.15,2013-06-17 06:05:00,
2013-06-17 01:15:00,67.8,64.8,29.86,South,188,0.0,0.0,90,0.00,,,0.10,Wunderground v.1.15,2013-06-17 06:15:00,
2013-06-17 01:25:00,67.8,65.1,29.87,South,188,0.0,0.0,91,0.00,,,0.10,Wunderground v.1.15,2013-06-17 06:25:00,
2013-06-17 01:35:00,67.8,65.1,29.87,South,172,0.0,2.0,91,0.00,,,0.10,Wunderground v.1.15,2013-06-17 06:35:00,
2013-06-17 01:45:00,67.6,64.9,29.87,SSE,168,0.0,0.0,91,0.00,,,0.10,Wunderground v.1.15,2013-06-17 06:45:00,
2013-06-17 01:55:00,67.6,64.9,29.86,South,169,0.0,0.0,91,0.00,,,0.10,Wunderground v.1.15,2013-06-17 06:55:00,
2013-06-17 02:05:00,67.6,64.9,29.87,NW,319,1.0,1.0,91,0.00,,,0.10,Wunderground v.1.15,2013-06-17 07:05:00,
2013-06-17 02:15:00,67.6,65.2,29.87,NNE,28,1.0,5.0,92,0.00,,,0.10,Wunderground v.1.15,2013-06-17 07:15:00,
2013-06-17 02:20:00,67.4,64.7,29.86,NNW,333,2.0,2.0,91,0.00,,,0.10,Wunderground v.1.15,2013-06-17 07:20:00,
2013-06-17 02:30:00,67.4,64.7,29.86,NNW,338,0.0,0.0,91,0.00,,,0.11,Wunderground v.1.15,2013-06-17 07:30:00,
2013-06-17 02:40:00,67.4,64.7,29.85,NNE,21,1.0,1.0,91,0.04,,,0.12,Wunderground v.1.15,2013-06-17 07:40:00,
2013-06-17 02:50:00,67.3,64.6,29.84,NNE,21,0.0,0.0,91,0.04,,,0.12,Wunderground v.1.15,2013-06-17 07:50:00,
2013-06-17 03:00:00,67.6,64.9,29.84,NNE,21,0.0,0.0,91,0.00,,,0.13,Wunderground v.1.15,2013-06-17 08:00:00,
2013-06-17 03:05:00,67.4,64.7,29.81,ESE,118,0.0,3.0,91,0.09,,,0.14,Wunderground v.1.15,2013-06-17 08:05:00,
2013-06-17 03:10:00,67.3,64.6,29.81,SSE,161,1.0,1.0,91,0.08,,,0.14,Wunderground v.1.15,2013-06-17 08:10:00,
2013-06-17 03:20:00,67.3,64.9,29.79,NW,320,0.0,1.0,92,0.04,,,0.14,Wunderground v.1.15,2013-06-17 08:20:00,
2013-06-17 03:25:00,67.3,64.9,29.79,NW,320,0.0,1.0,92,0.00,,,0.15,Wunderground v.1.15,2013-06-17 08:25:00,
2013-06-17 03:30:00,67.1,64.7,29.79,NW,320,0.0,0.0,92,0.10,,,0.16,Wunderground v.1.15,2013-06-17 08:30:00,
2013-06-17 03:40:00,67.1,64.7,29.80,WNW,294,0.0,3.0,92,0.05,,,0.16,Wunderground v.1.15,2013-06-17 08:40:00,
2013-06-17 03:50:00,66.8,64.4,29.79,WNW,294,0.0,0.0,92,0.04,,,0.17,Wunderground v.1.15,2013-06-17 08:50:00,
2013-06-17 03:55:00,66.8,64.4,29.79,South,176,1.0,3.0,92,0.04,,,0.17,Wunderground v.1.15,2013-06-17 08:55:00,
2013-06-17 04:05:00,66.6,64.2,29.77,SW,222,1.0,1.0,92,0.00,,,0.17,Wunderground v.1.15,2013-06-17 09:05:00,
2013-06-17 04:15:00,66.1,63.7,29.77,SSW,209,2.0,3.0,92,0.00,,,0.18,Wunderground v.1.15,2013-06-17 09:15:00,
2013-06-17 04:25:00,65.6,62.9,29.78,ESE,119,1.0,2.0,91,0.00,,,0.18,Wunderground v.1.15,2013-06-17 09:25:00,
2013-06-17 04:35:00,65.5,62.8,29.78,ESE,119,0.0,0.0,91,0.00,,,0.18,Wunderground v.1.15,2013-06-17 09:35:00,
2013-06-17 04:40:00,65.5,62.8,29.78,ESE,119,0.0,0.0,91,0.00,,,0.18,Wunderground v.1.15,2013-06-17 09:40:00,
2013-06-17 04:50:00,65.3,62.3,29.77,ESE,120,1.0,1.0,90,0.00,,,0.18,Wunderground v.1.15,2013-06-17 09:50:00,
2013-06-17 05:00:00,65.2,61.9,29.77,SE,125,0.0,0.0,89,0.00,,,0.18,Wunderground v.1.15,2013-06-17 10:00:00,
2013-06-17 05:05:00,65.2,61.9,29.76,SE,125,0.0,0.0,89,0.00,,,0.18,Wunderground v.1.15,2013-06-17 10:05:00,
2013-06-17 05:15:00,65.2,61.9,29.76,SE,125,0.0,0.0,89,0.00,,,0.18,Wunderground v.1.15,2013-06-17 10:15:00,
2013-06-17 05:25:00,65.0,61.7,29.75,SE,125,0.0,0.0,89,0.00,,,0.18,Wunderground v.1.15,2013-06-17 10:25:00,
2013-06-17 05:35:00,64.8,61.8,29.74,SE,125,0.0,0.0,90,0.00,,,0.18,Wunderground v.1.15,2013-06-17 10:35:00,
2013-06-17 05:45:00,64.8,62.1,29.74,SW,223,1.0,1.0,91,0.00,,,0.18,Wunderground v.1.15,2013-06-17 10:45:00,
2013-06-17 05:55:00,64.8,62.1,29.74,SW,225,0.0,1.0,91,0.00,,,0.18,Wunderground v.1.15,2013-06-17 10:55:00,
2013-06-17 06:05:00,64.5,62.1,29.76,SW,225,0.0,0.0,92,0.00,,,0.18,Wunderground v.1.15,2013-06-17 11:05:00,
2013-06-17 06:15:00,64.7,62.3,29.76,NNE,23,1.0,2.0,92,0.00,,,0.18,Wunderground v.1.15,2013-06-17 11:15:00,
2013-06-17 06:25:00,64.8,62.4,29.78,NNE,24,1.0,3.0,92,0.00,,,0.18,Wunderground v.1.15,2013-06-17 11:25:00,
2013-06-17 06:35:00,65.0,62.6,29.78,NNE,24,0.0,0.0,92,0.00,,,0.18,Wunderground v.1.15,2013-06-17 11:35:00,
2013-06-17 06:45:00,65.0,62.6,29.78,NNE,24,0.0,0.0,92,0.00,,,0.18,Wunderground v.1.15,2013-06-17 11:45:00,
2013-06-17 06:54:00,65.3,62.6,29.80,NNE,24,0.0,1.0,91,0.00,,,0.18,Wunderground v.1.15,2013-06-17 11:54:00,
2013-06-17 07:00:00,65.5,62.8,29.80,NNE,28,1.0,1.0,91,0.00,,,0.18,Wunderground v.1.15,2013-06-17 12:00:00,
2013-06-17 07:05:00,65.6,62.9,29.81,SSE,151,0.0,1.0,91,0.00,,,0.18,Wunderground v.1.15,2013-06-17 12:05:00,
2013-06-17 07:14:00,65.8,63.1,29.81,SSE,151,0.0,0.0,91,0.00,,,0.18,Wunderground v.1.15,2013-06-17 12:14:00,
2013-06-17 07:20:00,66.0,63.3,29.81,SSE,151,0.0,0.0,91,0.00,,,0.18,Wunderground v.1.15,2013-06-17 12:20:00,
2013-06-17 07:30:00,66.3,63.6,29.81,SSE,151,0.0,0.0,91,0.00,,,0.18,Wunderground v.1.15,2013-06-17 12:30:00,
2013-06-17 07:40:00,66.3,63.6,29.83,WSW,250,1.0,1.0,91,0.00,,,0.18,Wunderground v.1.15,2013-06-17 12:40:00,
2013-06-17 07:50:00,66.4,64.0,29.83,WSW,250,0.0,0.0,92,0.00,,,0.18,Wunderground v.1.15,2013-06-17 12:50:00,
2013-06-17 08:00:00,66.4,64.0,29.83,WSW,250,0.0,0.0,92,0.00,,,0.18,Wunderground v.1.15,2013-06-17 13:00:00,
2013-06-17 08:05:00,66.6,64.2,29.83,WSW,250,0.0,0.0,92,0.00,,,0.18,Wunderground v.1.15,2013-06-17 13:05:00,
2013-06-17 08:10:00,66.8,64.4,29.83,NW,325,0.0,0.0,92,0.00,,,0.18,Wunderground v.1.15,2013-06-17 13:10:00,
2013-06-17 08:20:00,67.1,64.7,29.82,NW,325,0.0,0.0,92,0.00,,,0.18,Wunderground v.1.15,2013-06-17 13:20:00,
2013-06-17 08:25:00,67.3,64.9,29.82,NNE,30,0.0,0.0,92,0.00,,,0.18,Wunderground v.1.15,2013-06-17 13:25:00,
2013-06-17 08:34:00,67.3,64.6,29.82,North,5,0.0,0.0,91,0.00,,,0.18,Wunderground v.1.15,2013-06-17 13:34:00,
2013-06-17 08:40:00,67.3,64.6,29.82,North,5,1.0,1.0,91,0.00,,,0.18,Wunderground v.1.15,2013-06-17 13:40:00,
2013-06-17 08:50:00,67.4,64.7,29.82,North,5,0.0,0.0,91,0.00,,,0.18,Wunderground v.1.15,2013-06-17 13:50:00,
2013-06-17 09:00:00,67.6,64.9,29.82,North,5,0.0,0.0,91,0.00,,,0.18,Wunderground v.1.15,2013-06-17 14:00:00,
2013-06-17 09:05:00,67.8,65.1,29.82,North,5,0.0,0.0,91,0.00,,,0.18,Wunderground v.1.15,2013-06-17 14:05:00,
2013-06-17 09:15:00,68.1,65.4,29.82,North,5,0.0,0.0,91,0.00,,,0.18,Wunderground v.1.15,2013-06-17 14:15:00,
2013-06-17 09:20:00,68.3,65.6,29.83,North,5,0.0,0.0,91,0.00,,,0.18,Wunderground v.1.15,2013-06-17 14:20:00,
2013-06-17 09:30:00,68.4,65.7,29.83,North,5,0.0,0.0,91,0.00,,,0.18,Wunderground v.1.15,2013-06-17 14:30:00,
2013-06-17 09:40:00,68.9,66.2,29.84,North,5,0.0,0.0,91,0.00,,,0.18,Wunderground v.1.15,2013-06-17 14:40:00,
2013-06-17 09:45:00,69.1,66.0,29.84,North,5,0.0,0.0,90,0.00,,,0.18,Wunderground v.1.15,2013-06-17 14:45:00,
2013-06-17 09:55:00,69.3,66.2,29.84,North,5,0.0,0.0,90,0.00,,,0.18,Wunderground v.1.15,2013-06-17 14:55:00,
2013-06-17 10:00:00,69.3,66.2,29.84,North,5,0.0,0.0,90,0.00,,,0.18,Wunderground v.1.15,2013-06-17 15:00:00,
2013-06-17 10:05:00,69.3,66.2,29.84,North,360,0.0,0.0,90,0.00,,,0.18,Wunderground v.1.15,2013-06-17 15:05:00,
2013-06-17 10:15:00,69.3,66.2,29.84,NNE,19,1.0,3.0,90,0.00,,,0.18,Wunderground v.1.15,2013-06-17 15:15:00,
2013-06-17 10:25:00,69.6,66.5,29.84,NNE,19,0.0,1.0,90,0.00,,,0.18,Wunderground v.1.15,2013-06-17 15:25:00,
2013-06-17 10:35:00,69.6,66.2,29.85,WNW,300,0.0,0.0,89,0.00,,,0.18,Wunderground v.1.15,2013-06-17 15:35:00,
2013-06-17 10:44:00,69.6,65.9,29.85,NNW,338,0.0,0.0,88,0.00,,,0.18,Wunderground v.1.15,2013-06-17 15:44:00,
2013-06-17 10:50:00,69.9,66.5,29.86,NNW,336,0.0,0.0,89,0.00,,,0.18,Wunderground v.1.15,2013-06-17 15:50:00,
2013-06-17 11:00:00,70.3,66.6,29.86,NNW,335,0.0,0.0,88,0.00,,,0.18,Wunderground v.1.15,2013-06-17 16:00:00,
2013-06-17 11:05:00,70.4,66.7,29.86,NNW,335,0.0,0.0,88,0.00,,,0.18,Wunderground v.1.15,2013-06-17 16:05:00,
2013-06-17 11:10:00,70.6,66.9,29.86,NNW,334,0.0,0.0,88,0.00,,,0.18,Wunderground v.1.15,2013-06-17 16:10:00,
2013-06-17 11:19:00,71.1,67.0,29.87,NNE,14,0.0,0.0,87,0.00,,,0.18,Wunderground v.1.15,2013-06-17 16:19:00,
2013-06-17 11:25:00,70.9,66.5,29.87,North,5,0.0,0.0,86,0.00,,,0.18,Wunderground v.1.15,2013-06-17 16:25:00,
2013-06-17 11:35:00,70.9,66.2,29.86,North,9,0.0,0.0,85,0.00,,,0.18,Wunderground v.1.15,2013-06-17 16:35:00,
2013-06-17 11:45:00,70.6,65.5,29.86,North,10,0.0,0.0,84,0.56,,,0.20,Wunderground v.1.15,2013-06-17 16:45:00,
2013-06-17 11:54:00,70.6,66.2,29.86,North,10,0.0,0.0,86,0.06,,,0.20,Wunderground v.1.15,2013-06-17 16:54:00,
2013-06-17 12:00:00,70.8,66.7,29.86,North,10,0.0,1.0,87,0.04,,,0.20,Wunderground v.1.15,2013-06-17 17:00:00,
2013-06-17 12:05:00,70.6,66.2,29.86,North,11,1.0,1.0,86,0.00,,,0.20,Wunderground v.1.15,2013-06-17 17:05:00,
2013-06-17 12:10:00,70.6,66.5,29.86,North,9,1.0,1.0,87,0.00,,,0.20,Wunderground v.1.15,2013-06-17 17:10:00,
2013-06-17 12:20:00,70.6,66.5,29.86,NNE,14,0.0,2.0,87,0.00,,,0.20,Wunderground v.1.15,2013-06-17 17:20:00,
2013-06-17 12:29:00,70.6,66.5,29.86,NNE,16,1.0,1.0,87,0.00,,,0.20,Wunderground v.1.15,2013-06-17 17:29:00,
2013-06-17 12:35:00,70.8,66.7,29.86,NNE,16,0.0,1.0,87,0.00,,,0.20,Wunderground v.1.15,2013-06-17 17:35:00,
2013-06-17 12:45:00,71.1,67.0,29.86,NNW,333,0.0,0.0,87,0.00,,,0.21,Wunderground v.1.15,2013-06-17 17:45:00,
2013-06-17 12:55:00,71.3,67.2,29.86,NNW,338,0.0,1.0,87,0.00,,,0.21,Wunderground v.1.15,2013-06-17 17:55:00,
2013-06-17 13:00:00,71.5,67.8,29.86,NW,321,0.0,3.0,88,0.00,,,0.21,Wunderground v.1.15,2013-06-17 18:00:00,
2013-06-17 13:05:00,71.5,67.4,29.85,NW,310,1.0,3.0,87,0.00,,,0.21,Wunderground v.1.15,2013-06-17 18:05:00,
2013-06-17 13:15:00,71.5,67.8,29.85,West,270,1.0,4.0,88,0.00,,,0.21,Wunderground v.1.15,2013-06-17 18:15:00,
2013-06-17 13:25:00,71.3,67.2,29.86,WSW,238,0.0,1.0,87,0.00,,,0.21,Wunderground v.1.15,2013-06-17 18:25:00,
2013-06-17 13:34:00,71.3,67.6,29.87,SSW,210,0.0,0.0,88,0.00,,,0.21,Wunderground v.1.15,2013-06-17 18:34:00,
2013-06-17 13:40:00,71.3,67.6,29.87,SSW,210,0.0,0.0,88,0.00,,,0.21,Wunderground v.1.15,2013-06-17 18:40:00,
2013-06-17 13:50:00,71.3,67.6,29.86,North,5,0.0,0.0,88,0.00,,,0.21,Wunderground v.1.15,2013-06-17 18:50:00,
2013-06-17 13:59:00,71.5,67.8,29.86,North,351,1.0,1.0,88,0.00,,,0.21,Wunderground v.1.15,2013-06-17 18:59:00,
2013-06-17 14:05:00,71.5,67.4,29.84,NNW,340,1.0,1.0,87,0.00,,,0.21,Wunderground v.1.15,2013-06-17 19:05:00,
2013-06-17 14:15:00,71.8,68.1,29.84,North,9,0.0,1.0,88,0.00,,,0.21,Wunderground v.1.15,2013-06-17 19:15:00,
2013-06-17 14:25:00,71.8,67.7,29.84,NNE,32,1.0,3.0,87,0.00,,,0.21,Wunderground v.1.15,2013-06-17 19:25:00,
2013-06-17 14:35:00,71.8,67.7,29.83,North,355,2.0,2.0,87,0.00,,,0.21,Wunderground v.1.15,2013-06-17 19:35:00,
2013-06-17 14:40:00,72.1,68.0,29.83,North,355,1.0,1.0,87,0.00,,,0.21,Wunderground v.1.15,2013-06-17 19:40:00,
2013-06-17 14:50:00,72.3,67.9,29.82,North,11,1.0,1.0,86,0.00,,,0.21,Wunderground v.1.15,2013-06-17 19:50:00,
2013-06-17 15:00:00,72.8,68.4,29.82,NNE,13,1.0,2.0,86,0.00,,,0.21,Wunderground v.1.15,2013-06-17 20:00:00,
2013-06-17 15:05:00,72.8,67.7,29.81,North,11,2.0,4.0,84,0.00,,,0.21,Wunderground v.1.15,2013-06-17 20:05:00,
2013-06-17 15:10:00,72.8,67.3,29.81,NNE,21,3.0,3.0,83,0.00,,,0.21,Wunderground v.1.15,2013-06-17 20:10:00,
2013-06-17 15:19:00,72.8,66.3,29.80,NNW,331,3.0,3.0,80,0.00,,,0.21,Wunderground v.1.15,2013-06-17 20:19:00,
2013-06-17 15:25:00,73.0,66.5,29.80,North,5,2.0,3.0,80,0.00,,,0.21,Wunderground v.1.15,2013-06-17 20:25:00,
2013-06-17 15:35:00,73.5,67.3,29.79,NNE,13,1.0,1.0,81,0.00,,,0.21,Wunderground v.1.15,2013-06-17 20:35:00,
2013-06-17 15:44:00,74.0,67.8,29.79,NW,307,1.0,2.0,81,0.00,,,0.21,Wunderground v.1.15,2013-06-17 20:44:00,
2013-06-17 15:50:00,74.0,67.8,29.79,NW,323,1.0,6.0,81,0.00,,,0.21,Wunderground v.1.15,2013-06-17 20:50:00,
2013-06-17 16:00:00,74.2,68.0,29.79,North,355,2.0,2.0,81,0.00,,,0.21,Wunderground v.1.15,2013-06-17 21:00:00,
2013-06-17 16:05:00,74.0,67.8,29.79,NE,51,2.0,2.0,81,0.00,,,0.21,Wunderground v.1.15,2013-06-17 21:05:00,
2013-06-17 16:15:00,74.2,68.0,29.79,North,360,1.0,2.0,81,0.00,,,0.21,Wunderground v.1.15,2013-06-17 21:15:00,
2013-06-17 16:25:00,74.2,68.0,29.80,NNE,23,1.0,3.0,81,0.00,,,0.21,Wunderground v.1.15,2013-06-17 21:25:00,
2013-06-17 16:35:00,74.0,66.7,29.79,NNW,337,1.0,3.0,78,0.00,,,0.21,Wunderground v.1.15,2013-06-17 21:35:00,
2013-06-17 16:44:00,74.2,66.9,29.79,NNE,30,0.0,1.0,78,0.00,,,0.21,Wunderground v.1.15,2013-06-17 21:44:00,
2013-06-17 16:50:00,73.9,66.2,29.80,North,5,1.0,1.0,77,0.00,,,0.21,Wunderground v.1.15,2013-06-17 21:50:00,
2013-06-17 17:00:00,73.7,66.4,29.80,NNE,18,1.0,2.0,78,0.00,,,0.21,Wunderground v.1.15,2013-06-17 22:00:00,
2013-06-17 17:09:00,73.5,66.6,29.81,NNE,27,1.0,1.0,79,0.00,,,0.21,Wunderground v.1.15,2013-06-17 22:09:00,
2013-06-17 17:15:00,73.5,66.9,29.81,NNE,17,0.0,1.0,80,0.00,,,0.21,Wunderground v.1.15,2013-06-17 22:15:00,
2013-06-17 17:25:00,73.3,66.4,29.81,NNW,346,1.0,4.0,79,0.00,,,0.21,Wunderground v.1.15,2013-06-17 22:25:00,
2013-06-17 17:35:00,73.0,66.5,29.81,NNE,15,2.0,2.0,80,0.00,,,0.21,Wunderground v.1.15,2013-06-17 22:35:00,
2013-06-17 17:45:00,72.8,66.6,29.81,NNE,17,1.0,1.0,81,0.00,,,0.21,Wunderground v.1.15,2013-06-17 22:45:00,
2013-06-17 17:50:00,72.8,67.0,29.82,North,350,1.0,1.0,82,0.00,,,0.21,Wunderground v.1.15,2013-06-17 22:50:00,
2013-06-17 18:00:00,72.7,67.2,29.82,North,360,1.0,1.0,83,0.00,,,0.21,Wunderground v.1.15,2013-06-17 23:00:00,
2013-06-17 18:05:00,72.7,67.2,29.82,North,360,0.0,1.0,83,0.00,,,0.21,Wunderground v.1.15,2013-06-17 23:05:00,
2013-06-17 18:10:00,72.8,67.3,29.82,NNW,348,0.0,0.0,83,0.00,,,0.21,Wunderground v.1.15,2013-06-17 23:10:00,
2013-06-17 18:19:00,72.7,67.2,29.82,NNE,22,1.0,1.0,83,0.00,,,0.21,Wunderground v.1.15,2013-06-17 23:19:00,
2013-06-17 18:25:00,72.7,67.6,29.82,NNE,22,0.0,1.0,84,0.00,,,0.21,Wunderground v.1.15,2013-06-17 23:25:00,
2013-06-17 18:35:00,72.7,67.6,29.81,NNE,22,0.0,0.0,84,0.00,,,0.21,Wunderground v.1.15,2013-06-17 23:35:00,
2013-06-17 18:45:00,72.7,67.2,29.81,NNE,15,0.0,0.0,83,0.00,,,0.21,Wunderground v.1.15,2013-06-17 23:45:00,
2013-06-17 18:54:00,72.7,67.2,29.82,NNE,17,0.0,0.0,83,0.00,,,0.21,Wunderground v.1.15,2013-06-17 23:54:00,
2013-06-17 19:00:00,72.7,67.2,29.82,NNE,20,1.0,1.0,83,0.00,,,0.21,Wunderground v.1.15,2013-06-18 00:00:00,
2013-06-17 19:05:00,72.7,67.2,29.82,North,11,1.0,1.0,83,0.00,,,0.21,Wunderground v.1.15,2013-06-18 00:05:00,
2013-06-17 19:10:00,72.7,67.2,29.82,North,11,0.0,0.0,83,0.00,,,0.21,Wunderground v.1.15,2013-06-18 00:10:00,
2013-06-17 19:19:00,72.5,67.0,29.82,North,11,0.0,0.0,83,0.00,,,0.21,Wunderground v.1.15,2013-06-18 00:19:00,
2013-06-17 19:25:00,72.5,67.0,29.82,North,11,0.0,0.0,83,0.00,,,0.21,Wunderground v.1.15,2013-06-18 00:25:00,
2013-06-17 19:35:00,72.3,67.2,29.82,North,11,0.0,0.0,84,0.00,,,0.21,Wunderground v.1.15,2013-06-18 00:35:00,
2013-06-17 19:45:00,72.1,67.0,29.82,North,11,0.0,0.0,84,0.00,,,0.21,Wunderground v.1.15,2013-06-18 00:45:00,
2013-06-17 19:55:00,72.1,67.3,29.82,North,11,0.0,1.0,85,0.00,,,0.21,Wunderground v.1.15,2013-06-18 00:55:00,
2013-06-17 20:00:00,72.0,67.2,29.82,North,11,0.0,0.0,85,0.00,,,0.21,Wunderground v.1.15,2013-06-18 01:00:00,
2013-06-17 20:05:00,72.0,67.2,29.82,North,11,0.0,0.0,85,0.00,,,0.21,Wunderground v.1.15,2013-06-18 01:05:00,
2013-06-17 20:15:00,71.8,67.0,29.82,North,11,0.0,0.0,85,0.00,,,0.21,Wunderground v.1.15,2013-06-18 01:15:00,
2013-06-17 20:25:00,71.8,67.4,29.82,North,11,0.0,0.0,86,0.00,,,0.21,Wunderground v.1.15,2013-06-18 01:25:00,
2013-06-17 20:34:00,71.8,67.0,29.82,North,11,0.0,0.0,85,0.00,,,0.21,Wunderground v.1.15,2013-06-18 01:34:00,
2013-06-17 20:40:00,71.8,67.0,29.82,North,11,0.0,0.0,85,0.00,,,0.21,Wunderground v.1.15,2013-06-18 01:40:00,
2013-06-17 20:50:00,71.6,67.2,29.83,North,11,0.0,0.0,86,0.00,,,0.21,Wunderground v.1.15,2013-06-18 01:50:00,
2013-06-17 21:00:00,71.5,67.4,29.83,North,11,0.0,0.0,87,0.00,,,0.21,Wunderground v.1.15,2013-06-18 02:00:00,
2013-06-17 21:05:00,71.5,67.4,29.83,North,11,0.0,0.0,87,0.00,,,0.21,Wunderground v.1.15,2013-06-18 02:05:00,
2013-06-17 21:10:00,71.5,67.4,29.83,North,11,0.0,0.0,87,0.00,,,0.21,Wunderground v.1.15,2013-06-18 02:10:00,
2013-06-17 21:20:00,71.3,67.2,29.83,North,11,0.0,0.0,87,0.00,,,0.21,Wunderground v.1.15,2013-06-18 02:20:00,
2013-06-17 21:25:00,71.1,67.4,29.83,North,11,0.0,0.0,88,0.00,,,0.21,Wunderground v.1.15,2013-06-18 02:25:00,
2013-06-17 21:35:00,71.1,67.4,29.84,North,11,0.0,0.0,88,0.00,,,0.21,Wunderground v.1.15,2013-06-18 02:35:00,
2013-06-17 21:40:00,71.1,67.4,29.84,North,11,0.0,0.0,88,0.00,,,0.21,Wunderground v.1.15,2013-06-18 02:40:00,
2013-06-17 21:50:00,71.1,67.4,29.85,North,11,0.0,0.0,88,0.00,,,0.21,Wunderground v.1.15,2013-06-18 02:50:00,
2013-06-17 21:59:00,71.1,67.4,29.85,North,11,0.0,0.0,88,0.00,,,0.21,Wunderground v.1.15,2013-06-18 02:59:00,
2013-06-17 22:05:00,70.9,67.2,29.85,North,11,0.0,0.0,88,0.00,,,0.21,Wunderground v.1.15,2013-06-18 03:05:00,
2013-06-17 22:15:00,70.9,67.2,29.85,North,11,0.0,0.0,88,0.00,,,0.21,Wunderground v.1.15,2013-06-18 03:15:00,
2013-06-17 22:24:00,70.9,67.2,29.86,North,11,0.0,1.0,88,0.00,,,0.21,Wunderground v.1.15,2013-06-18 03:24:00,
2013-06-17 22:30:00,70.9,67.5,29.86,NNE,12,0.0,3.0,89,0.00,,,0.21,Wunderground v.1.15,2013-06-18 03:30:00,
2013-06-17 22:40:00,70.3,65.9,29.87,NE,36,2.0,3.0,86,0.00,,,0.22,Wunderground v.1.15,2013-06-18 03:40:00,
2013-06-17 22:50:00,69.1,63.7,29.87,NNE,17,3.0,3.0,83,0.00,,,0.22,Wunderground v.1.15,2013-06-18 03:50:00,
2013-06-17 22:55:00,68.8,63.4,29.87,North,5,2.0,3.0,83,0.00,,,0.22,Wunderground v.1.15,2013-06-18 03:55:00,
2013-06-17 23:05:00,68.1,62.4,29.87,East,90,2.0,3.0,82,0.00,,,0.22,Wunderground v.1.15,2013-06-18 04:05:00,
2013-06-17 23:10:00,67.9,61.9,29.87,East,98,1.0,1.0,81,0.00,,,0.22,Wunderground v.1.15,2013-06-18 04:10:00,
2013-06-17 23:15:00,67.8,62.1,29.87,NE,36,1.0,3.0,82,0.00,,,0.22,Wunderground v.1.15,2013-06-18 04:15:00,
2013-06-17 23:25:00,67.6,62.3,29.87,NE,36,0.0,0.0,83,0.00,,,0.22,Wunderground v.1.15,2013-06-18 04:25:00,
2013-06-17 23:30:00,67.6,62.3,29.87,NE,36,0.0,0.0,83,0.00,,,0.22,Wunderground v.1.15,2013-06-18 04:30:00,
2013-06-17 23:40:00,67.1,62.1,29.87,NE,36,0.0,0.0,84,0.00,,,0.22,Wunderground v.1.15,2013-06-18 04:40:00,
2013-06-17 23:49:00,66.8,61.8,29.85,NE,36,0.0,0.0,84,0.00,,,0.22,Wunderground v.1.15,2013-06-18 04:49:00,
2013-06-17 23:55:00,66.4,61.8,29.85,NE,36,0.0,0.0,85,0.00,,,0.22,Wunderground v.1.15,2013-06-18 04:55:00,